createdAt,value
2022-07-31T00:15:47.478Z,31.22
2022-07-31T00:18:52.355Z,31.59
2022-07-31T00:21:56.374Z,31.52
2022-07-31T00:25:01.340Z,31.92
2022-07-31T00:28:08.419Z,31.70
2022-07-31T00:31:13.415Z,31.70
2022-07-31T00:34:18.122Z,31.71
2022-07-31T00:37:22.482Z,31.60
2022-07-31T00:40:26.662Z,31.23
2022-07-31T00:43:31.347Z,31.35
2022-07-31T00:46:35.420Z,31.46
2022-07-31T00:49:45.204Z,31.51
2022-07-31T00:52:49.622Z,30.98
2022-07-31T00:55:53.897Z,30.01
2022-07-31T00:58:58.288Z,29.90
2022-07-31T01:02:02.397Z,29.44
2022-07-31T01:05:06.638Z,29.17
2022-07-31T01:08:11.308Z,28.96
2022-07-31T01:11:26.213Z,28.86
2022-07-31T01:14:31.856Z,28.80
2022-07-31T01:17:37.906Z,29.10
2022-07-31T01:20:45.292Z,29.33
2022-07-31T01:24:05.611Z,30.11
2022-07-31T01:27:49.628Z,30.98
2022-07-31T01:34:43.885Z,30.95
2022-07-31T01:38:06.165Z,31.11
2022-07-31T01:41:15.984Z,31.13
2022-07-31T01:44:20.284Z,31.30
2022-07-31T01:47:25.110Z,30.94
2022-07-31T01:50:43.180Z,30.30
2022-07-31T01:53:50.933Z,30.50
2022-07-31T01:56:55.966Z,30.41
2022-07-31T02:00:02.148Z,30.47
2022-07-31T02:03:20.614Z,30.31
2022-07-31T02:06:44.884Z,30.01
2022-07-31T02:09:57.071Z,30.00
2022-07-31T02:13:08.894Z,30.90
2022-07-31T02:16:14.563Z,31.46
2022-07-31T02:19:19.406Z,31.47
2022-07-31T02:22:23.958Z,31.08
2022-07-31T02:25:28.861Z,30.43
2022-07-31T02:28:34.263Z,30.09
2022-07-31T02:31:39.251Z,29.44
2022-07-31T02:34:46.805Z,29.80
2022-07-31T02:37:52.736Z,30.13
2022-07-31T02:41:02.698Z,30.24
2022-07-31T02:44:06.403Z,30.61
2022-07-31T02:47:12.837Z,31.07
2022-07-31T02:50:20.471Z,31.07
2022-07-31T02:53:27.989Z,31.27
2022-07-31T02:56:36.413Z,31.19
2022-07-31T02:59:41.584Z,30.94
2022-07-31T03:02:46.968Z,30.95
2022-07-31T03:05:50.846Z,31.60
2022-07-31T03:08:55.080Z,31.07
2022-07-31T03:12:03.446Z,30.94
2022-07-31T03:15:13.846Z,31.45
2022-07-31T03:18:18.977Z,30.90
2022-07-31T03:21:23.888Z,30.37
2022-07-31T03:24:28.119Z,30.05
2022-07-31T03:27:32.160Z,29.66
2022-07-31T03:30:36.505Z,30.44
2022-07-31T03:33:40.381Z,30.68
2022-07-31T03:36:46.880Z,30.49
2022-07-31T03:39:51.358Z,30.60
2022-07-31T03:42:56.094Z,30.52
2022-07-31T03:46:00.829Z,30.71
2022-07-31T03:49:05.199Z,30.76
2022-07-31T03:52:12.528Z,30.86
2022-07-31T03:55:17.870Z,30.88
2022-07-31T03:58:23.193Z,30.83
2022-07-31T04:01:57.605Z,30.76
2022-07-31T04:05:00.513Z,30.91
2022-07-31T04:08:05.562Z,31.11
2022-07-31T04:11:09.994Z,30.95
2022-07-31T04:14:14.176Z,30.83
2022-07-31T04:17:18.599Z,30.63
2022-07-31T04:20:23.715Z,30.45
2022-07-31T04:23:32.615Z,30.41
2022-07-31T04:26:56.601Z,30.63
2022-07-31T04:30:09.397Z,30.76
2022-07-31T04:33:15.903Z,30.82
2022-07-31T04:36:30.361Z,31.02
2022-07-31T04:39:37.568Z,31.28
2022-07-31T04:42:41.648Z,31.11
2022-07-31T04:45:45.910Z,30.91
2022-07-31T04:48:50.389Z,31.08
2022-07-31T04:51:54.370Z,30.99
2022-07-31T04:54:59.074Z,30.78
2022-07-31T04:58:04.456Z,30.66
2022-07-31T05:01:08.656Z,30.69
2022-07-31T05:04:13.660Z,30.79
2022-07-31T05:07:18.405Z,30.74
2022-07-31T05:10:41.090Z,30.54
2022-07-31T05:13:44.828Z,30.30
2022-07-31T05:16:49.587Z,30.12
2022-07-31T05:19:54.507Z,30.02
2022-07-31T05:23:23.749Z,29.98
2022-07-31T05:26:54.193Z,29.99
2022-07-31T05:29:58.542Z,30.10
2022-07-31T05:33:02.285Z,30.11
2022-07-31T05:36:07.094Z,30.00
2022-07-31T05:39:13.132Z,29.85
2022-07-31T05:42:17.273Z,29.80
2022-07-31T05:45:41.694Z,29.49
2022-07-31T05:48:46.134Z,29.50
2022-07-31T05:51:54.871Z,29.42
2022-07-31T05:54:58.860Z,29.33
2022-07-31T05:58:34.852Z,28.98
2022-07-31T06:01:39.293Z,28.48
2022-07-31T06:04:43.498Z,28.08
2022-07-31T06:07:52.184Z,27.52
2022-07-31T06:10:59.181Z,27.11
2022-07-31T06:14:03.219Z,26.60
2022-07-31T06:17:40.255Z,25.79
2022-07-31T06:20:56.016Z,25.53
2022-07-31T06:24:00.194Z,25.42
2022-07-31T06:27:23.304Z,25.63
2022-07-31T06:30:37.934Z,25.69
2022-07-31T06:33:43.875Z,25.60
2022-07-31T06:36:54.308Z,25.77
2022-07-31T06:39:59.126Z,26.05
2022-07-31T06:43:36.368Z,26.03
2022-07-31T06:47:20.170Z,25.90
2022-07-31T06:50:46.982Z,26.07
2022-07-31T06:54:07.782Z,26.67
2022-07-31T06:57:12.893Z,26.90
2022-07-31T07:00:20.360Z,26.93
2022-07-31T07:03:27.730Z,26.84
2022-07-31T07:06:32.146Z,26.90
2022-07-31T07:09:36.321Z,26.95
2022-07-31T07:12:41.057Z,26.96
2022-07-31T07:15:45.534Z,26.91
2022-07-31T07:18:49.394Z,26.77
2022-07-31T07:21:53.436Z,26.71
2022-07-31T07:24:57.755Z,26.83
2022-07-31T07:28:02.441Z,27.01
2022-07-31T07:31:06.797Z,27.18
2022-07-31T07:34:10.835Z,27.21
2022-07-31T07:37:15.108Z,27.11
2022-07-31T07:40:19.435Z,27.08
2022-07-31T07:43:23.804Z,27.16
2022-07-31T07:46:27.979Z,27.10
2022-07-31T07:49:36.797Z,27.02
2022-07-31T07:53:00.825Z,26.98
2022-07-31T07:56:27.419Z,26.92
2022-07-31T07:59:50.818Z,26.89
2022-07-31T08:03:51.069Z,26.99
2022-07-31T08:06:37.733Z,27.09
2022-07-31T08:09:41.899Z,27.13
2022-07-31T08:13:08.462Z,27.25
2022-07-31T08:16:42.885Z,27.38
2022-07-31T08:19:51.255Z,27.37
2022-07-31T08:22:55.308Z,27.42
2022-07-31T08:25:59.309Z,27.36
2022-07-31T08:29:07.677Z,27.39
2022-07-31T08:32:11.996Z,27.37
2022-07-31T08:35:36.355Z,27.29
2022-07-31T08:38:40.414Z,27.25
2022-07-31T08:42:06.703Z,27.27
2022-07-31T08:45:11.227Z,27.24
2022-07-31T08:48:23.018Z,27.28
2022-07-31T08:51:26.907Z,27.30
2022-07-31T08:55:07.585Z,27.28
2022-07-31T08:58:11.785Z,27.26
2022-07-31T09:01:16.340Z,27.25
2022-07-31T09:04:22.148Z,27.13
2022-07-31T09:07:26.311Z,27.13
2022-07-31T09:10:31.231Z,27.18
2022-07-31T09:13:35.694Z,27.16
2022-07-31T09:16:48.082Z,27.17
2022-07-31T09:19:54.993Z,27.11
2022-07-31T09:23:10.145Z,27.09
2022-07-31T09:26:19.851Z,27.09
2022-07-31T09:29:34.508Z,27.06
2022-07-31T09:32:40.876Z,26.90
2022-07-31T09:35:53.728Z,26.80
2022-07-31T09:38:57.683Z,26.77
2022-07-31T09:42:45.536Z,26.77
2022-07-31T09:46:02.328Z,26.72
2022-07-31T09:49:06.226Z,26.68
2022-07-31T09:52:19.375Z,26.56
2022-07-31T09:55:23.293Z,26.47
2022-07-31T09:58:27.201Z,26.40
2022-07-31T10:01:32.053Z,26.31
2022-07-31T10:04:38.504Z,26.21
2022-07-31T10:07:44.668Z,26.02
2022-07-31T10:10:55.502Z,26.04
2022-07-31T10:14:04.147Z,25.98
2022-07-31T10:17:08.831Z,25.91
2022-07-31T10:20:53.929Z,25.82
2022-07-31T10:24:23.780Z,25.80
2022-07-31T10:27:33.774Z,25.78
2022-07-31T10:30:47.459Z,25.77
2022-07-31T10:33:51.325Z,25.71
2022-07-31T10:37:20.103Z,25.68
2022-07-31T10:40:43.350Z,25.62
2022-07-31T10:43:58.535Z,25.63
2022-07-31T10:47:20.965Z,25.61
2022-07-31T10:50:43.322Z,25.62
2022-07-31T10:54:19.276Z,25.62
2022-07-31T10:57:56.236Z,25.60
2022-07-31T11:01:19.827Z,25.59
2022-07-31T11:04:43.928Z,25.55
2022-07-31T11:08:14.097Z,25.34
2022-07-31T11:11:33.979Z,25.52
2022-07-31T11:14:59.049Z,25.54
2022-07-31T11:18:24.370Z,25.48
2022-07-31T11:21:42.138Z,25.38
2022-07-31T11:24:55.712Z,25.48
2022-07-31T11:28:10.658Z,25.34
2022-07-31T11:31:14.808Z,25.31
2022-07-31T11:34:19.208Z,25.28
2022-07-31T11:37:35.296Z,25.27
2022-07-31T11:40:51.891Z,25.27
2022-07-31T11:43:58.350Z,25.24
2022-07-31T11:47:02.671Z,25.24
2022-07-31T11:50:08.757Z,25.28
2022-07-31T11:53:13.519Z,25.24
2022-07-31T11:56:18.644Z,25.18
2022-07-31T11:59:46.426Z,25.10
2022-07-31T12:02:53.944Z,25.06
2022-07-31T12:05:58.429Z,24.99
2022-07-31T12:09:02.693Z,24.87
2022-07-31T12:12:07.409Z,24.81
2022-07-31T12:15:15.558Z,24.73
2022-07-31T12:18:19.758Z,24.66
2022-07-31T12:21:34.573Z,24.65
2022-07-31T12:24:40.107Z,24.60
2022-07-31T12:27:44.222Z,24.57
2022-07-31T12:30:58.809Z,24.52
2022-07-31T12:34:02.819Z,24.42
2022-07-31T12:37:08.199Z,24.37
2022-07-31T12:40:22.638Z,24.36
2022-07-31T12:43:26.352Z,24.39
2022-07-31T12:46:37.588Z,24.38
2022-07-31T12:49:42.135Z,24.39
2022-07-31T12:52:46.378Z,24.38
2022-07-31T12:55:50.111Z,24.35
2022-07-31T12:58:54.137Z,24.35
2022-07-31T13:01:58.343Z,24.37
2022-07-31T13:05:02.339Z,24.36
2022-07-31T13:08:07.843Z,24.35
2022-07-31T13:11:12.256Z,24.35
2022-07-31T13:14:17.053Z,24.33
2022-07-31T13:17:20.917Z,24.26
2022-07-31T13:20:24.614Z,24.08
2022-07-31T13:23:29.044Z,24.21
2022-07-31T13:26:34.247Z,24.26
2022-07-31T13:29:38.233Z,24.30
2022-07-31T13:32:42.184Z,24.25
2022-07-31T13:35:46.253Z,24.20
2022-07-31T13:38:50.291Z,24.21
2022-07-31T13:41:54.223Z,24.16
2022-07-31T13:44:59.774Z,24.12
2022-07-31T13:48:08.891Z,24.04
2022-07-31T13:51:13.560Z,24.00
2022-07-31T13:54:17.772Z,23.98
2022-07-31T13:57:21.564Z,24.06
2022-07-31T14:00:25.208Z,24.06
2022-07-31T14:03:29.727Z,24.10
2022-07-31T14:06:35.308Z,24.04
2022-07-31T14:09:39.776Z,23.96
2022-07-31T14:12:58.522Z,23.86
2022-07-31T14:16:02.460Z,23.77
2022-07-31T14:19:06.729Z,23.86
2022-07-31T14:22:11.585Z,23.84
2022-07-31T14:25:15.339Z,23.85
2022-07-31T14:28:20.107Z,23.94
2022-07-31T14:31:24.518Z,23.96
2022-07-31T14:34:35.394Z,23.91
2022-07-31T14:37:42.435Z,23.91
2022-07-31T14:40:46.463Z,23.89
2022-07-31T14:43:50.519Z,23.96
2022-07-31T14:46:54.649Z,23.96
2022-07-31T14:50:10.674Z,23.92
2022-07-31T14:53:16.702Z,23.91
2022-07-31T14:56:34.816Z,23.85
2022-07-31T14:59:44.069Z,23.93
2022-07-31T15:02:50.330Z,23.98
2022-07-31T15:06:40.956Z,24.03
2022-07-31T15:09:19.760Z,23.99
2022-07-31T15:12:23.804Z,24.02
2022-07-31T15:15:28.482Z,23.91
2022-07-31T15:18:33.120Z,23.83
2022-07-31T15:21:37.052Z,23.78
2022-07-31T15:24:47.508Z,23.71
2022-07-31T15:27:53.516Z,23.63
2022-07-31T15:31:01.028Z,23.62
2022-07-31T15:34:05.172Z,23.63
2022-07-31T15:37:08.988Z,23.61
2022-07-31T15:40:15.580Z,23.58
2022-07-31T15:43:20.071Z,23.51
2022-07-31T15:46:23.967Z,23.53
2022-07-31T15:49:28.050Z,23.61
2022-07-31T15:52:37.322Z,23.70
2022-07-31T15:55:41.585Z,23.74
2022-07-31T15:58:45.737Z,23.73
2022-07-31T16:01:49.522Z,23.75
2022-07-31T16:04:54.815Z,23.77
2022-07-31T16:08:31.473Z,23.70
2022-07-31T16:11:24.946Z,23.66
2022-07-31T16:14:49.261Z,23.60
2022-07-31T16:17:53.998Z,23.55
2022-07-31T16:20:58.151Z,23.59
2022-07-31T16:24:02.300Z,23.57
2022-07-31T16:27:07.050Z,23.54
2022-07-31T16:30:14.305Z,23.54
2022-07-31T16:33:19.189Z,23.58
2022-07-31T16:36:23.501Z,23.53
2022-07-31T16:39:27.643Z,23.55
2022-07-31T16:42:31.974Z,23.53
2022-07-31T16:45:38.636Z,23.50
2022-07-31T16:48:43.338Z,23.46
2022-07-31T16:51:47.210Z,23.44
2022-07-31T16:54:51.075Z,23.43
2022-07-31T16:57:55.096Z,23.49
2022-07-31T17:00:59.320Z,23.59
2022-07-31T17:04:04.627Z,23.64
2022-07-31T17:07:09.232Z,23.66
2022-07-31T17:10:13.190Z,23.70
2022-07-31T17:13:17.331Z,23.72
2022-07-31T17:16:21.322Z,23.70
2022-07-31T17:19:42.934Z,23.65
2022-07-31T17:22:52.787Z,23.66
2022-07-31T17:25:58.721Z,23.69
2022-07-31T17:29:02.621Z,23.62
2022-07-31T17:32:06.680Z,23.53
2022-07-31T17:35:13.549Z,23.51
2022-07-31T17:38:17.929Z,23.51
2022-07-31T17:41:25.206Z,23.52
2022-07-31T17:44:29.772Z,23.49
2022-07-31T17:47:34.756Z,23.49
2022-07-31T17:50:39.060Z,23.46
2022-07-31T17:53:54.537Z,23.47
2022-07-31T17:57:02.164Z,23.45
2022-07-31T18:00:08.107Z,23.42
2022-07-31T18:03:11.963Z,23.46
2022-07-31T18:06:15.871Z,23.49
2022-07-31T18:09:21.522Z,23.46
2022-07-31T18:12:28.590Z,23.43
2022-07-31T18:15:52.360Z,23.45
2022-07-31T18:18:56.553Z,23.45
2022-07-31T18:22:00.311Z,23.48
2022-07-31T18:25:08.140Z,23.54
2022-07-31T18:28:12.568Z,23.57
2022-07-31T18:31:34.551Z,23.67
2022-07-31T18:34:39.568Z,23.75
2022-07-31T18:37:43.786Z,23.75
2022-07-31T18:40:47.809Z,23.75
2022-07-31T18:43:52.492Z,23.88
2022-07-31T18:46:56.505Z,23.83
2022-07-31T18:51:00.505Z,23.80
2022-07-31T18:53:24.183Z,23.82
2022-07-31T18:56:28.123Z,23.83
2022-07-31T18:59:32.269Z,23.84
2022-07-31T19:02:36.571Z,23.87
2022-07-31T19:05:40.948Z,23.93
2022-07-31T19:08:45.266Z,23.90
2022-07-31T19:11:50.840Z,23.90
2022-07-31T19:14:55.899Z,23.90
2022-07-31T19:18:01.910Z,23.90
2022-07-31T19:21:23.394Z,23.90
2022-07-31T19:24:31.076Z,23.93
2022-07-31T19:27:48.061Z,23.94
2022-07-31T19:30:54.360Z,23.92
2022-07-31T19:33:58.722Z,23.94
2022-07-31T19:37:02.704Z,24.01
2022-07-31T19:40:07.301Z,23.98
2022-07-31T19:43:12.515Z,23.97
2022-07-31T19:46:16.706Z,23.99
2022-07-31T19:49:21.425Z,23.98
2022-07-31T19:52:25.794Z,24.02
2022-07-31T19:55:30.077Z,23.95
2022-07-31T19:58:44.725Z,23.90
2022-07-31T20:01:48.670Z,23.90
2022-07-31T20:04:52.853Z,23.91
2022-07-31T20:07:56.757Z,23.90
2022-07-31T20:11:04.299Z,23.91
2022-07-31T20:14:08.712Z,23.90
2022-07-31T20:17:12.727Z,23.92
2022-07-31T20:20:16.877Z,23.87
2022-07-31T20:23:21.046Z,23.90
2022-07-31T20:26:25.332Z,23.89
2022-07-31T20:29:29.222Z,23.92
2022-07-31T20:32:33.099Z,23.94
2022-07-31T20:35:47.995Z,23.95
2022-07-31T20:38:53.851Z,23.90
2022-07-31T20:41:57.658Z,23.88
2022-07-31T20:45:01.593Z,23.88
2022-07-31T20:48:08.172Z,23.85
2022-07-31T20:51:19.944Z,23.85
2022-07-31T20:54:34.459Z,23.84
2022-07-31T20:57:38.687Z,23.88
2022-07-31T21:00:43.028Z,24.00
2022-07-31T21:03:47.482Z,24.07
2022-07-31T21:06:51.351Z,24.04
2022-07-31T21:09:55.335Z,24.06
2022-07-31T21:12:59.612Z,24.12
2022-07-31T21:16:04.516Z,24.16
2022-07-31T21:19:09.181Z,24.14
2022-07-31T21:22:14.939Z,24.23
2022-07-31T21:25:19.064Z,24.26
2022-07-31T21:28:23.477Z,24.32
2022-07-31T21:31:27.430Z,24.40
2022-07-31T21:34:31.951Z,24.53
2022-07-31T21:37:40.210Z,24.63
2022-07-31T21:40:45.161Z,24.61
2022-07-31T21:43:58.831Z,24.64
2022-07-31T21:47:04.779Z,24.71
2022-07-31T21:50:09.419Z,24.70
2022-07-31T21:53:15.409Z,24.79
2022-07-31T21:56:19.462Z,24.84
2022-07-31T21:59:23.679Z,24.94
2022-07-31T22:02:27.887Z,25.06
2022-07-31T22:05:50.146Z,25.11
2022-07-31T22:08:54.013Z,25.11
2022-07-31T22:12:05.426Z,25.27
2022-07-31T22:15:14.997Z,25.19
2022-07-31T22:18:19.599Z,25.21
2022-07-31T22:21:23.726Z,25.23
2022-07-31T22:24:28.056Z,25.27
2022-07-31T22:27:50.481Z,25.25
2022-07-31T22:30:54.505Z,25.29
2022-07-31T22:33:58.410Z,25.32
2022-07-31T22:37:02.372Z,25.44
2022-07-31T22:40:07.552Z,25.55
2022-07-31T22:44:14.158Z,25.88
2022-07-31T22:46:37.553Z,26.29
2022-07-31T22:49:41.893Z,26.26
2022-07-31T22:52:46.018Z,26.42
2022-07-31T22:55:50.310Z,27.01
2022-07-31T22:58:54.579Z,27.28
2022-07-31T23:01:59.188Z,27.28
2022-07-31T23:05:09.080Z,27.40
2022-07-31T23:08:12.865Z,27.46
2022-07-31T23:11:16.889Z,27.39
2022-07-31T23:14:20.964Z,27.55
2022-07-31T23:17:24.612Z,27.57
2022-07-31T23:20:28.637Z,27.56
2022-07-31T23:23:32.102Z,27.50
2022-07-31T23:26:35.785Z,27.35
2022-07-31T23:29:41.528Z,27.29
2022-07-31T23:32:45.985Z,27.49
2022-07-31T23:35:49.872Z,27.53
2022-07-31T23:38:53.792Z,27.51
2022-07-31T23:42:16.992Z,27.50
2022-07-31T23:45:21.150Z,27.81
2022-07-31T23:48:29.231Z,28.25
2022-07-31T23:51:34.003Z,29.48
2022-07-31T23:54:37.759Z,30.73
2022-07-31T23:57:42.255Z,31.31
